sensor_id;sensor_type;location;lat;lon;timestamp;temperature;humidity
15906;DHT22;8051;50.820;4.884;2022-10-31T00:01:00;13.30;99.90
15906;DHT22;8051;50.820;4.884;2022-10-31T00:03:29;13.30;99.90
15906;DHT22;8051;50.820;4.884;2022-10-31T00:05:57;13.30;99.90
15906;DHT22;8051;50.820;4.884;2022-10-31T00:08:24;13.40;99.90
15906;DHT22;8051;50.820;4.884;2022-10-31T00:10:51;13.40;99.90
15906;DHT22;8051;50.820;4.884;2022-10-31T00:13:19;13.40;99.90
15906;DHT22;8051;50.820;4.884;2022-10-31T00:15:46;13.40;99.90
15906;DHT22;8051;50.820;4.884;2022-10-31T00:18:14;13.40;99.90
15906;DHT22;8051;50.820;4.884;2022-10-31T00:20:43;13.40;99.90
15906;DHT22;8051;50.820;4.884;2022-10-31T00:23:11;13.30;99.90
15906;DHT22;8051;50.820;4.884;2022-10-31T00:25:39;13.30;99.90
15906;DHT22;8051;50.820;4.884;2022-10-31T00:28:09;13.30;99.90
15906;DHT22;8051;50.820;4.884;2022-10-31T00:30:37;13.30;99.90
15906;DHT22;8051;50.820;4.884;2022-10-31T00:33:05;13.30;99.90
15906;DHT22;8051;50.820;4.884;2022-10-31T00:35:32;13.30;99.90
15906;DHT22;8051;50.820;4.884;2022-10-31T00:38:01;13.30;99.90
15906;DHT22;8051;50.820;4.884;2022-10-31T00:40:29;13.30;99.90
15906;DHT22;8051;50.820;4.884;2022-10-31T00:42:56;13.20;99.90
15906;DHT22;8051;50.820;4.884;2022-10-31T00:45:24;13.20;99.90
15906;DHT22;8051;50.820;4.884;2022-10-31T00:47:51;13.20;99.90
15906;DHT22;8051;50.820;4.884;2022-10-31T00:50:18;13.20;99.90
15906;DHT22;8051;50.820;4.884;2022-10-31T00:52:46;13.10;99.90
15906;DHT22;8051;50.820;4.884;2022-10-31T00:55:15;13.10;99.90
15906;DHT22;8051;50.820;4.884;2022-10-31T00:57:42;13.10;99.90
15906;DHT22;8051;50.820;4.884;2022-10-31T01:00:13;13.00;99.90
15906;DHT22;8051;50.820;4.884;2022-10-31T01:02:40;13.00;99.90
15906;DHT22;8051;50.820;4.884;2022-10-31T01:05:08;13.00;99.90
15906;DHT22;8051;50.820;4.884;2022-10-31T01:07:36;13.00;99.90
15906;DHT22;8051;50.820;4.884;2022-10-31T01:10:04;13.00;99.90
15906;DHT22;8051;50.820;4.884;2022-10-31T01:12:37;13.00;99.90
15906;DHT22;8051;50.820;4.884;2022-10-31T01:15:06;13.00;99.90
15906;DHT22;8051;50.820;4.884;2022-10-31T01:17:33;13.00;99.90
15906;DHT22;8051;50.820;4.884;2022-10-31T01:20:01;13.00;99.90
15906;DHT22;8051;50.820;4.884;2022-10-31T01:22:28;12.90;99.90
15906;DHT22;8051;50.820;4.884;2022-10-31T01:24:56;12.90;99.90
15906;DHT22;8051;50.820;4.884;2022-10-31T01:27:23;12.90;99.90
15906;DHT22;8051;50.820;4.884;2022-10-31T01:29:52;12.90;99.90
15906;DHT22;8051;50.820;4.884;2022-10-31T01:32:19;12.80;99.90
15906;DHT22;8051;50.820;4.884;2022-10-31T01:34:47;12.80;99.90
15906;DHT22;8051;50.820;4.884;2022-10-31T01:37:14;12.70;99.90
15906;DHT22;8051;50.820;4.884;2022-10-31T01:39:42;12.70;99.90
15906;DHT22;8051;50.820;4.884;2022-10-31T01:42:11;12.60;99.90
15906;DHT22;8051;50.820;4.884;2022-10-31T01:44:56;12.60;99.90
15906;DHT22;8051;50.820;4.884;2022-10-31T01:47:37;12.60;99.90
15906;DHT22;8051;50.820;4.884;2022-10-31T01:50:12;12.50;99.90
15906;DHT22;8051;50.820;4.884;2022-10-31T01:52:42;12.50;99.90
15906;DHT22;8051;50.820;4.884;2022-10-31T01:55:15;12.40;99.90
15906;DHT22;8051;50.820;4.884;2022-10-31T01:57:46;12.40;99.90
15906;DHT22;8051;50.820;4.884;2022-10-31T02:00:17;12.30;99.90
15906;DHT22;8051;50.820;4.884;2022-10-31T02:02:46;12.30;99.90
15906;DHT22;8051;50.820;4.884;2022-10-31T02:05:17;12.30;99.90
15906;DHT22;8051;50.820;4.884;2022-10-31T02:07:48;12.20;99.90
15906;DHT22;8051;50.820;4.884;2022-10-31T02:10:20;12.20;99.90
15906;DHT22;8051;50.820;4.884;2022-10-31T02:12:49;12.20;99.90
15906;DHT22;8051;50.820;4.884;2022-10-31T02:15:18;12.20;99.90
15906;DHT22;8051;50.820;4.884;2022-10-31T02:17:46;12.10;99.90
15906;DHT22;8051;50.820;4.884;2022-10-31T02:20:17;12.00;99.90
15906;DHT22;8051;50.820;4.884;2022-10-31T02:26:09;11.90;99.90
15906;DHT22;8051;50.820;4.884;2022-10-31T02:28:55;11.80;99.90
15906;DHT22;8051;50.820;4.884;2022-10-31T02:31:35;11.80;99.90
15906;DHT22;8051;50.820;4.884;2022-10-31T02:34:13;11.70;99.90
15906;DHT22;8051;50.820;4.884;2022-10-31T02:36:52;11.70;99.90
15906;DHT22;8051;50.820;4.884;2022-10-31T02:39:25;11.60;99.90
15906;DHT22;8051;50.820;4.884;2022-10-31T02:42:01;11.60;99.90
15906;DHT22;8051;50.820;4.884;2022-10-31T02:44:37;11.60;99.90
15906;DHT22;8051;50.820;4.884;2022-10-31T02:47:11;11.50;99.90
15906;DHT22;8051;50.820;4.884;2022-10-31T02:49:43;11.50;99.90
15906;DHT22;8051;50.820;4.884;2022-10-31T02:52:20;11.50;99.90
15906;DHT22;8051;50.820;4.884;2022-10-31T02:54:48;11.50;99.90
15906;DHT22;8051;50.820;4.884;2022-10-31T02:57:18;11.40;99.90
15906;DHT22;8051;50.820;4.884;2022-10-31T02:59:48;11.40;99.90
15906;DHT22;8051;50.820;4.884;2022-10-31T03:02:38;11.40;99.90
15906;DHT22;8051;50.820;4.884;2022-10-31T03:05:19;11.40;99.90
15906;DHT22;8051;50.820;4.884;2022-10-31T03:07:57;11.40;99.90
15906;DHT22;8051;50.820;4.884;2022-10-31T03:10:35;11.40;99.90
15906;DHT22;8051;50.820;4.884;2022-10-31T03:13:09;11.50;99.90
15906;DHT22;8051;50.820;4.884;2022-10-31T03:15:40;11.50;99.90
15906;DHT22;8051;50.820;4.884;2022-10-31T03:18:15;11.60;99.90
15906;DHT22;8051;50.820;4.884;2022-10-31T03:20:47;11.60;99.90
15906;DHT22;8051;50.820;4.884;2022-10-31T03:23:19;11.70;99.90
15906;DHT22;8051;50.820;4.884;2022-10-31T03:25:48;11.70;99.90
15906;DHT22;8051;50.820;4.884;2022-10-31T03:28:18;11.80;99.90
15906;DHT22;8051;50.820;4.884;2022-10-31T03:30:51;11.90;99.90
15906;DHT22;8051;50.820;4.884;2022-10-31T03:33:24;11.90;99.90
15906;DHT22;8051;50.820;4.884;2022-10-31T03:35:55;12.00;99.90
15906;DHT22;8051;50.820;4.884;2022-10-31T03:38:23;12.10;99.90
15906;DHT22;8051;50.820;4.884;2022-10-31T03:40:52;12.10;99.90
15906;DHT22;8051;50.820;4.884;2022-10-31T03:43:24;12.00;99.90
15906;DHT22;8051;50.820;4.884;2022-10-31T03:45:52;12.00;99.90
15906;DHT22;8051;50.820;4.884;2022-10-31T03:48:21;12.00;99.90
15906;DHT22;8051;50.820;4.884;2022-10-31T03:50:56;12.00;99.90
15906;DHT22;8051;50.820;4.884;2022-10-31T03:53:29;12.00;99.90
15906;DHT22;8051;50.820;4.884;2022-10-31T03:56:01;12.10;99.90
15906;DHT22;8051;50.820;4.884;2022-10-31T03:58:33;12.00;99.90
15906;DHT22;8051;50.820;4.884;2022-10-31T04:01:04;12.00;99.90
15906;DHT22;8051;50.820;4.884;2022-10-31T04:03:36;12.00;99.90
15906;DHT22;8051;50.820;4.884;2022-10-31T04:06:07;11.90;99.90
15906;DHT22;8051;50.820;4.884;2022-10-31T04:08:40;11.80;99.90
15906;DHT22;8051;50.820;4.884;2022-10-31T04:11:10;11.70;99.90
15906;DHT22;8051;50.820;4.884;2022-10-31T04:13:39;11.70;99.90
15906;DHT22;8051;50.820;4.884;2022-10-31T04:16:07;11.60;99.90
15906;DHT22;8051;50.820;4.884;2022-10-31T04:18:37;11.50;99.90
15906;DHT22;8051;50.820;4.884;2022-10-31T04:21:06;11.40;99.90
15906;DHT22;8051;50.820;4.884;2022-10-31T04:23:35;11.40;99.90
15906;DHT22;8051;50.820;4.884;2022-10-31T04:26:03;11.30;99.90
15906;DHT22;8051;50.820;4.884;2022-10-31T04:28:30;11.30;99.90
15906;DHT22;8051;50.820;4.884;2022-10-31T04:30:59;11.20;99.90
15906;DHT22;8051;50.820;4.884;2022-10-31T04:33:26;11.20;99.90
15906;DHT22;8051;50.820;4.884;2022-10-31T04:35:55;11.10;99.90
15906;DHT22;8051;50.820;4.884;2022-10-31T04:38:23;11.10;99.90
15906;DHT22;8051;50.820;4.884;2022-10-31T04:40:50;11.10;99.90
15906;DHT22;8051;50.820;4.884;2022-10-31T04:43:18;11.00;99.90
15906;DHT22;8051;50.820;4.884;2022-10-31T04:45:45;11.00;99.90
15906;DHT22;8051;50.820;4.884;2022-10-31T04:48:12;11.00;99.90
15906;DHT22;8051;50.820;4.884;2022-10-31T04:50:40;11.00;99.90
15906;DHT22;8051;50.820;4.884;2022-10-31T04:53:09;10.90;99.90
15906;DHT22;8051;50.820;4.884;2022-10-31T04:55:36;10.90;99.90
15906;DHT22;8051;50.820;4.884;2022-10-31T04:58:04;10.90;99.90
15906;DHT22;8051;50.820;4.884;2022-10-31T05:00:31;10.90;99.90
15906;DHT22;8051;50.820;4.884;2022-10-31T05:02:59;10.90;99.90
15906;DHT22;8051;50.820;4.884;2022-10-31T05:05:28;10.90;99.90
15906;DHT22;8051;50.820;4.884;2022-10-31T05:07:56;10.90;99.90
15906;DHT22;8051;50.820;4.884;2022-10-31T05:10:27;10.90;99.90
15906;DHT22;8051;50.820;4.884;2022-10-31T05:12:56;10.90;99.90
15906;DHT22;8051;50.820;4.884;2022-10-31T05:15:25;10.90;99.90
15906;DHT22;8051;50.820;4.884;2022-10-31T05:17:53;10.90;99.90
15906;DHT22;8051;50.820;4.884;2022-10-31T05:20:24;10.90;99.90
15906;DHT22;8051;50.820;4.884;2022-10-31T05:22:54;10.90;99.90
15906;DHT22;8051;50.820;4.884;2022-10-31T05:25:23;10.90;99.90
15906;DHT22;8051;50.820;4.884;2022-10-31T05:27:54;10.90;99.90
15906;DHT22;8051;50.820;4.884;2022-10-31T05:30:24;10.90;99.90
15906;DHT22;8051;50.820;4.884;2022-10-31T05:32:51;10.90;99.90
15906;DHT22;8051;50.820;4.884;2022-10-31T05:35:20;10.90;99.90
15906;DHT22;8051;50.820;4.884;2022-10-31T05:37:48;11.00;99.90
15906;DHT22;8051;50.820;4.884;2022-10-31T05:40:17;11.00;99.90
15906;DHT22;8051;50.820;4.884;2022-10-31T05:42:45;11.00;99.90
15906;DHT22;8051;50.820;4.884;2022-10-31T05:45:16;11.00;99.90
15906;DHT22;8051;50.820;4.884;2022-10-31T05:47:50;11.10;99.90
15906;DHT22;8051;50.820;4.884;2022-10-31T05:50:18;11.10;99.90
15906;DHT22;8051;50.820;4.884;2022-10-31T05:52:45;11.10;99.90
15906;DHT22;8051;50.820;4.884;2022-10-31T05:55:13;11.10;99.90
15906;DHT22;8051;50.820;4.884;2022-10-31T05:57:40;11.10;99.90
15906;DHT22;8051;50.820;4.884;2022-10-31T06:00:09;11.10;99.90
15906;DHT22;8051;50.820;4.884;2022-10-31T06:02:38;11.10;99.90
15906;DHT22;8051;50.820;4.884;2022-10-31T06:05:06;11.10;99.90
15906;DHT22;8051;50.820;4.884;2022-10-31T06:07:34;11.10;99.90
15906;DHT22;8051;50.820;4.884;2022-10-31T06:10:03;11.10;99.90
15906;DHT22;8051;50.820;4.884;2022-10-31T06:12:32;11.10;99.90
15906;DHT22;8051;50.820;4.884;2022-10-31T06:15:04;11.00;99.90
15906;DHT22;8051;50.820;4.884;2022-10-31T06:17:33;11.00;99.90
15906;DHT22;8051;50.820;4.884;2022-10-31T06:20:03;11.00;99.90
15906;DHT22;8051;50.820;4.884;2022-10-31T06:22:31;11.00;99.90
15906;DHT22;8051;50.820;4.884;2022-10-31T06:24:58;11.00;99.90
15906;DHT22;8051;50.820;4.884;2022-10-31T06:27:26;10.90;99.90
15906;DHT22;8051;50.820;4.884;2022-10-31T06:29:54;11.00;99.90
15906;DHT22;8051;50.820;4.884;2022-10-31T06:32:21;11.00;99.90
15906;DHT22;8051;50.820;4.884;2022-10-31T06:34:48;11.00;99.90
15906;DHT22;8051;50.820;4.884;2022-10-31T06:37:17;11.00;99.90
15906;DHT22;8051;50.820;4.884;2022-10-31T06:39:45;11.00;99.90
15906;DHT22;8051;50.820;4.884;2022-10-31T06:42:12;11.00;99.90
15906;DHT22;8051;50.820;4.884;2022-10-31T06:44:42;11.00;99.90
15906;DHT22;8051;50.820;4.884;2022-10-31T06:47:09;11.00;99.90
15906;DHT22;8051;50.820;4.884;2022-10-31T06:49:37;11.00;99.90
15906;DHT22;8051;50.820;4.884;2022-10-31T06:52:05;11.00;99.90
15906;DHT22;8051;50.820;4.884;2022-10-31T06:54:34;11.00;99.90
15906;DHT22;8051;50.820;4.884;2022-10-31T06:57:01;11.00;99.90
15906;DHT22;8051;50.820;4.884;2022-10-31T06:59:28;11.00;99.90
15906;DHT22;8051;50.820;4.884;2022-10-31T07:01:57;11.00;99.90
15906;DHT22;8051;50.820;4.884;2022-10-31T07:04:24;11.10;99.90
15906;DHT22;8051;50.820;4.884;2022-10-31T07:06:52;11.10;99.90
15906;DHT22;8051;50.820;4.884;2022-10-31T07:09:19;11.20;99.90
15906;DHT22;8051;50.820;4.884;2022-10-31T07:11:51;11.20;99.90
15906;DHT22;8051;50.820;4.884;2022-10-31T07:14:18;11.30;99.90
15906;DHT22;8051;50.820;4.884;2022-10-31T07:16:48;11.30;99.90
15906;DHT22;8051;50.820;4.884;2022-10-31T07:19:16;11.40;99.90
15906;DHT22;8051;50.820;4.884;2022-10-31T07:21:43;11.50;99.90
15906;DHT22;8051;50.820;4.884;2022-10-31T07:24:11;11.60;99.90
15906;DHT22;8051;50.820;4.884;2022-10-31T07:26:38;11.60;99.90
15906;DHT22;8051;50.820;4.884;2022-10-31T07:29:07;11.60;99.90
15906;DHT22;8051;50.820;4.884;2022-10-31T07:31:34;11.70;99.90
15906;DHT22;8051;50.820;4.884;2022-10-31T07:34:02;11.80;99.90
15906;DHT22;8051;50.820;4.884;2022-10-31T07:36:29;11.80;99.90
15906;DHT22;8051;50.820;4.884;2022-10-31T07:38:57;11.90;99.90
15906;DHT22;8051;50.820;4.884;2022-10-31T07:41:25;12.00;99.90
15906;DHT22;8051;50.820;4.884;2022-10-31T07:43:52;12.00;99.90
15906;DHT22;8051;50.820;4.884;2022-10-31T07:46:21;12.10;99.90
15906;DHT22;8051;50.820;4.884;2022-10-31T07:48:49;12.20;99.90
15906;DHT22;8051;50.820;4.884;2022-10-31T07:51:16;12.20;99.90
15906;DHT22;8051;50.820;4.884;2022-10-31T07:53:44;12.20;99.90
15906;DHT22;8051;50.820;4.884;2022-10-31T07:56:11;12.30;99.90
15906;DHT22;8051;50.820;4.884;2022-10-31T07:58:39;12.20;99.90
15906;DHT22;8051;50.820;4.884;2022-10-31T08:01:06;12.20;99.90
15906;DHT22;8051;50.820;4.884;2022-10-31T08:03:35;12.30;99.90
15906;DHT22;8051;50.820;4.884;2022-10-31T08:06:03;12.50;99.90
15906;DHT22;8051;50.820;4.884;2022-10-31T08:08:30;12.60;99.90
15906;DHT22;8051;50.820;4.884;2022-10-31T08:10:58;12.80;99.90
15906;DHT22;8051;50.820;4.884;2022-10-31T08:13:25;12.90;99.90
15906;DHT22;8051;50.820;4.884;2022-10-31T08:15:53;13.00;99.90
15906;DHT22;8051;50.820;4.884;2022-10-31T08:18:21;13.10;99.90
15906;DHT22;8051;50.820;4.884;2022-10-31T08:20:51;13.10;99.90
15906;DHT22;8051;50.820;4.884;2022-10-31T08:23:18;13.10;99.90
15906;DHT22;8051;50.820;4.884;2022-10-31T08:25:45;13.10;99.90
15906;DHT22;8051;50.820;4.884;2022-10-31T08:28:14;13.00;99.90
15906;DHT22;8051;50.820;4.884;2022-10-31T08:30:42;12.90;99.90
15906;DHT22;8051;50.820;4.884;2022-10-31T08:33:10;12.80;99.90
15906;DHT22;8051;50.820;4.884;2022-10-31T08:35:38;12.80;99.90
15906;DHT22;8051;50.820;4.884;2022-10-31T08:38:09;12.80;99.90
15906;DHT22;8051;50.820;4.884;2022-10-31T08:40:37;12.80;99.90
15906;DHT22;8051;50.820;4.884;2022-10-31T08:43:05;12.90;99.90
15906;DHT22;8051;50.820;4.884;2022-10-31T08:45:34;13.00;99.90
15906;DHT22;8051;50.820;4.884;2022-10-31T08:48:03;13.10;99.90
15906;DHT22;8051;50.820;4.884;2022-10-31T08:50:32;13.30;99.90
15906;DHT22;8051;50.820;4.884;2022-10-31T08:53:01;13.40;99.90
15906;DHT22;8051;50.820;4.884;2022-10-31T08:55:30;13.50;99.90
15906;DHT22;8051;50.820;4.884;2022-10-31T08:57:57;13.70;99.90
15906;DHT22;8051;50.820;4.884;2022-10-31T09:00:25;13.80;99.90
15906;DHT22;8051;50.820;4.884;2022-10-31T09:02:56;13.90;99.90
15906;DHT22;8051;50.820;4.884;2022-10-31T09:05:26;14.10;99.90
15906;DHT22;8051;50.820;4.884;2022-10-31T09:07:56;14.20;99.90
15906;DHT22;8051;50.820;4.884;2022-10-31T09:10:24;14.30;99.90
15906;DHT22;8051;50.820;4.884;2022-10-31T09:12:57;14.50;99.90
15906;DHT22;8051;50.820;4.884;2022-10-31T09:15:25;14.60;99.90
15906;DHT22;8051;50.820;4.884;2022-10-31T09:17:53;14.80;99.90
15906;DHT22;8051;50.820;4.884;2022-10-31T09:20:20;14.90;99.90
15906;DHT22;8051;50.820;4.884;2022-10-31T09:22:54;15.00;99.90
15906;DHT22;8051;50.820;4.884;2022-10-31T09:25:22;15.10;99.90
15906;DHT22;8051;50.820;4.884;2022-10-31T09:27:49;15.20;99.90
15906;DHT22;8051;50.820;4.884;2022-10-31T09:30:18;15.30;99.90
15906;DHT22;8051;50.820;4.884;2022-10-31T09:32:46;15.40;99.90
15906;DHT22;8051;50.820;4.884;2022-10-31T09:35:14;15.40;99.90
15906;DHT22;8051;50.820;4.884;2022-10-31T09:37:41;15.50;99.90
15906;DHT22;8051;50.820;4.884;2022-10-31T09:40:10;15.40;99.90
15906;DHT22;8051;50.820;4.884;2022-10-31T09:42:53;15.30;99.90
15906;DHT22;8051;50.820;4.884;2022-10-31T09:45:28;15.40;99.90
15906;DHT22;8051;50.820;4.884;2022-10-31T09:48:17;15.30;99.90
15906;DHT22;8051;50.820;4.884;2022-10-31T09:50:50;15.30;99.90
15906;DHT22;8051;50.820;4.884;2022-10-31T09:53:23;15.30;99.90
15906;DHT22;8051;50.820;4.884;2022-10-31T09:55:53;15.40;99.90
15906;DHT22;8051;50.820;4.884;2022-10-31T09:58:24;15.50;99.90
15906;DHT22;8051;50.820;4.884;2022-10-31T10:00:56;15.60;99.90
15906;DHT22;8051;50.820;4.884;2022-10-31T10:03:31;15.70;99.90
15906;DHT22;8051;50.820;4.884;2022-10-31T10:06:06;15.50;99.90
15906;DHT22;8051;50.820;4.884;2022-10-31T10:08:38;15.50;99.90
15906;DHT22;8051;50.820;4.884;2022-10-31T10:11:26;15.50;99.90
15906;DHT22;8051;50.820;4.884;2022-10-31T10:14:04;15.60;99.90
15906;DHT22;8051;50.820;4.884;2022-10-31T10:16:47;15.70;99.90
15906;DHT22;8051;50.820;4.884;2022-10-31T10:19:27;15.60;99.90
15906;DHT22;8051;50.820;4.884;2022-10-31T10:22:02;15.50;99.90
15906;DHT22;8051;50.820;4.884;2022-10-31T10:24:54;15.50;99.90
15906;DHT22;8051;50.820;4.884;2022-10-31T10:27:27;15.40;99.90
15906;DHT22;8051;50.820;4.884;2022-10-31T10:30:00;15.40;99.90
15906;DHT22;8051;50.820;4.884;2022-10-31T10:32:43;15.40;99.90
15906;DHT22;8051;50.820;4.884;2022-10-31T10:35:18;15.50;99.90
15906;DHT22;8051;50.820;4.884;2022-10-31T10:37:49;15.50;99.90
15906;DHT22;8051;50.820;4.884;2022-10-31T10:40:20;15.60;99.90
15906;DHT22;8051;50.820;4.884;2022-10-31T10:42:56;15.80;99.90
15906;DHT22;8051;50.820;4.884;2022-10-31T10:45:46;15.90;99.90
15906;DHT22;8051;50.820;4.884;2022-10-31T10:48:41;16.00;99.90
15906;DHT22;8051;50.820;4.884;2022-10-31T10:51:18;16.10;99.90
15906;DHT22;8051;50.820;4.884;2022-10-31T10:56:58;16.10;99.90
15906;DHT22;8051;50.820;4.884;2022-10-31T10:59:27;16.10;99.90
15906;DHT22;8051;50.820;4.884;2022-10-31T11:01:56;16.00;99.90
15906;DHT22;8051;50.820;4.884;2022-10-31T11:04:30;15.90;99.90
15906;DHT22;8051;50.820;4.884;2022-10-31T11:07:03;15.90;99.90
15906;DHT22;8051;50.820;4.884;2022-10-31T11:09:31;15.90;99.90
15906;DHT22;8051;50.820;4.884;2022-10-31T11:11:59;15.90;99.90
15906;DHT22;8051;50.820;4.884;2022-10-31T11:14:27;16.00;99.90
15906;DHT22;8051;50.820;4.884;2022-10-31T11:17:07;16.00;99.90
15906;DHT22;8051;50.820;4.884;2022-10-31T11:19:38;15.90;99.90
15906;DHT22;8051;50.820;4.884;2022-10-31T11:22:07;15.90;99.90
15906;DHT22;8051;50.820;4.884;2022-10-31T11:24:39;15.90;99.90
15906;DHT22;8051;50.820;4.884;2022-10-31T11:27:15;15.90;99.90
15906;DHT22;8051;50.820;4.884;2022-10-31T11:29:42;16.00;99.90
15906;DHT22;8051;50.820;4.884;2022-10-31T11:32:19;16.10;99.90
15906;DHT22;8051;50.820;4.884;2022-10-31T11:34:50;16.30;99.90
15906;DHT22;8051;50.820;4.884;2022-10-31T11:37:21;16.50;99.90
15906;DHT22;8051;50.820;4.884;2022-10-31T11:39:51;16.60;99.90
15906;DHT22;8051;50.820;4.884;2022-10-31T11:42:22;16.70;99.90
15906;DHT22;8051;50.820;4.884;2022-10-31T11:44:51;16.80;99.90
15906;DHT22;8051;50.820;4.884;2022-10-31T11:47:23;16.90;99.90
15906;DHT22;8051;50.820;4.884;2022-10-31T11:49:54;17.10;99.90
15906;DHT22;8051;50.820;4.884;2022-10-31T11:52:24;17.10;99.90
15906;DHT22;8051;50.820;4.884;2022-10-31T11:54:55;17.20;99.90
15906;DHT22;8051;50.820;4.884;2022-10-31T11:57:24;17.20;99.90
15906;DHT22;8051;50.820;4.884;2022-10-31T11:59:54;17.30;99.90
15906;DHT22;8051;50.820;4.884;2022-10-31T12:02:22;17.40;99.90
15906;DHT22;8051;50.820;4.884;2022-10-31T12:04:55;17.50;99.90
15906;DHT22;8051;50.820;4.884;2022-10-31T12:07:25;17.60;99.90
15906;DHT22;8051;50.820;4.884;2022-10-31T12:09:52;17.70;99.90
15906;DHT22;8051;50.820;4.884;2022-10-31T12:12:36;17.70;99.90
15906;DHT22;8051;50.820;4.884;2022-10-31T12:15:29;17.80;99.90
15906;DHT22;8051;50.820;4.884;2022-10-31T12:21:04;18.00;99.90
15906;DHT22;8051;50.820;4.884;2022-10-31T12:23:45;18.00;99.90
15906;DHT22;8051;50.820;4.884;2022-10-31T12:26:20;18.10;99.90
15906;DHT22;8051;50.820;4.884;2022-10-31T12:29:04;18.10;99.90
15906;DHT22;8051;50.820;4.884;2022-10-31T12:31:46;18.20;99.90
15906;DHT22;8051;50.820;4.884;2022-10-31T12:34:42;18.10;99.90
15906;DHT22;8051;50.820;4.884;2022-10-31T12:37:21;18.00;99.90
15906;DHT22;8051;50.820;4.884;2022-10-31T12:40:03;17.90;99.90
15906;DHT22;8051;50.820;4.884;2022-10-31T12:42:46;17.90;99.90
15906;DHT22;8051;50.820;4.884;2022-10-31T12:45:32;17.90;99.90
15906;DHT22;8051;50.820;4.884;2022-10-31T12:48:15;17.80;99.90
15906;DHT22;8051;50.820;4.884;2022-10-31T12:50:52;17.80;99.90
15906;DHT22;8051;50.820;4.884;2022-10-31T12:53:34;17.70;99.90
15906;DHT22;8051;50.820;4.884;2022-10-31T12:56:14;17.70;99.90
15906;DHT22;8051;50.820;4.884;2022-10-31T12:58:49;17.50;99.90
15906;DHT22;8051;50.820;4.884;2022-10-31T13:01:23;17.40;99.90
15906;DHT22;8051;50.820;4.884;2022-10-31T13:03:55;17.40;99.90
15906;DHT22;8051;50.820;4.884;2022-10-31T13:06:29;17.40;99.90
15906;DHT22;8051;50.820;4.884;2022-10-31T13:09:00;17.30;99.90
15906;DHT22;8051;50.820;4.884;2022-10-31T13:11:32;17.20;99.90
15906;DHT22;8051;50.820;4.884;2022-10-31T13:14:05;17.10;99.90
15906;DHT22;8051;50.820;4.884;2022-10-31T13:16:36;17.10;99.90
15906;DHT22;8051;50.820;4.884;2022-10-31T13:19:08;17.10;99.90
15906;DHT22;8051;50.820;4.884;2022-10-31T13:21:41;17.10;99.90
15906;DHT22;8051;50.820;4.884;2022-10-31T13:24:22;17.10;99.90
15906;DHT22;8051;50.820;4.884;2022-10-31T13:26:53;17.10;99.90
15906;DHT22;8051;50.820;4.884;2022-10-31T13:29:33;17.20;99.90
15906;DHT22;8051;50.820;4.884;2022-10-31T13:32:04;17.20;99.90
15906;DHT22;8051;50.820;4.884;2022-10-31T13:34:34;17.10;99.90
15906;DHT22;8051;50.820;4.884;2022-10-31T13:37:12;17.10;99.90
15906;DHT22;8051;50.820;4.884;2022-10-31T13:40:09;17.10;99.90
15906;DHT22;8051;50.820;4.884;2022-10-31T13:42:49;17.10;99.90
15906;DHT22;8051;50.820;4.884;2022-10-31T13:45:20;17.10;99.90
15906;DHT22;8051;50.820;4.884;2022-10-31T13:47:59;17.20;99.90
15906;DHT22;8051;50.820;4.884;2022-10-31T13:50:28;17.30;99.90
15906;DHT22;8051;50.820;4.884;2022-10-31T13:53:19;17.30;99.90
15906;DHT22;8051;50.820;4.884;2022-10-31T13:55:49;17.30;99.90
15906;DHT22;8051;50.820;4.884;2022-10-31T13:58:23;17.30;99.90
15906;DHT22;8051;50.820;4.884;2022-10-31T14:01:18;17.40;99.90
15906;DHT22;8051;50.820;4.884;2022-10-31T14:03:56;17.40;99.90
15906;DHT22;8051;50.820;4.884;2022-10-31T14:06:36;17.40;99.90
15906;DHT22;8051;50.820;4.884;2022-10-31T14:09:05;17.40;99.90
15906;DHT22;8051;50.820;4.884;2022-10-31T14:11:34;17.40;99.90
15906;DHT22;8051;50.820;4.884;2022-10-31T14:14:02;17.40;99.90
15906;DHT22;8051;50.820;4.884;2022-10-31T14:16:31;17.50;99.90
15906;DHT22;8051;50.820;4.884;2022-10-31T14:19:07;17.50;99.90
15906;DHT22;8051;50.820;4.884;2022-10-31T14:21:38;17.50;99.90
15906;DHT22;8051;50.820;4.884;2022-10-31T14:24:14;17.50;99.90
15906;DHT22;8051;50.820;4.884;2022-10-31T14:26:53;17.50;99.90
15906;DHT22;8051;50.820;4.884;2022-10-31T14:29:24;17.50;99.90
15906;DHT22;8051;50.820;4.884;2022-10-31T14:31:54;17.50;99.90
15906;DHT22;8051;50.820;4.884;2022-10-31T14:34:25;17.50;99.90
15906;DHT22;8051;50.820;4.884;2022-10-31T14:37:24;17.50;99.90
15906;DHT22;8051;50.820;4.884;2022-10-31T14:40:10;17.50;99.90
15906;DHT22;8051;50.820;4.884;2022-10-31T14:42:54;17.60;99.90
15906;DHT22;8051;50.820;4.884;2022-10-31T14:45:31;17.60;99.90
15906;DHT22;8051;50.820;4.884;2022-10-31T14:48:09;17.60;99.90
15906;DHT22;8051;50.820;4.884;2022-10-31T14:50:45;17.70;99.90
15906;DHT22;8051;50.820;4.884;2022-10-31T14:53:19;17.70;99.90
15906;DHT22;8051;50.820;4.884;2022-10-31T14:55:51;17.80;99.90
15906;DHT22;8051;50.820;4.884;2022-10-31T14:58:23;17.90;99.90
15906;DHT22;8051;50.820;4.884;2022-10-31T15:00:56;17.90;99.90
15906;DHT22;8051;50.820;4.884;2022-10-31T15:03:28;18.00;99.90
15906;DHT22;8051;50.820;4.884;2022-10-31T15:05:59;18.00;99.90
15906;DHT22;8051;50.820;4.884;2022-10-31T15:08:33;18.10;99.90
15906;DHT22;8051;50.820;4.884;2022-10-31T15:11:06;18.10;99.90
15906;DHT22;8051;50.820;4.884;2022-10-31T15:13:43;18.10;99.90
15906;DHT22;8051;50.820;4.884;2022-10-31T15:16:13;18.20;99.90
15906;DHT22;8051;50.820;4.884;2022-10-31T15:18:47;18.20;99.90
15906;DHT22;8051;50.820;4.884;2022-10-31T15:21:16;18.20;99.90
15906;DHT22;8051;50.820;4.884;2022-10-31T15:23:44;18.20;99.90
15906;DHT22;8051;50.820;4.884;2022-10-31T15:26:17;18.10;99.90
15906;DHT22;8051;50.820;4.884;2022-10-31T15:28:57;18.10;99.90
15906;DHT22;8051;50.820;4.884;2022-10-31T15:31:25;18.00;99.90
15906;DHT22;8051;50.820;4.884;2022-10-31T15:33:53;17.90;99.90
15906;DHT22;8051;50.820;4.884;2022-10-31T15:36:24;17.80;99.90
15906;DHT22;8051;50.820;4.884;2022-10-31T15:38:52;17.70;99.90
15906;DHT22;8051;50.820;4.884;2022-10-31T15:41:28;17.60;99.90
15906;DHT22;8051;50.820;4.884;2022-10-31T15:44:02;17.50;99.90
15906;DHT22;8051;50.820;4.884;2022-10-31T15:46:31;17.40;99.90
15906;DHT22;8051;50.820;4.884;2022-10-31T15:49:00;17.30;99.90
15906;DHT22;8051;50.820;4.884;2022-10-31T15:51:33;17.20;99.90
15906;DHT22;8051;50.820;4.884;2022-10-31T15:54:01;17.10;99.90
15906;DHT22;8051;50.820;4.884;2022-10-31T15:56:30;17.00;99.90
15906;DHT22;8051;50.820;4.884;2022-10-31T15:59:01;16.90;99.90
15906;DHT22;8051;50.820;4.884;2022-10-31T16:01:30;16.80;99.90
15906;DHT22;8051;50.820;4.884;2022-10-31T16:04:03;16.80;99.90
15906;DHT22;8051;50.820;4.884;2022-10-31T16:06:33;16.60;99.90
15906;DHT22;8051;50.820;4.884;2022-10-31T16:09:01;16.60;99.90
15906;DHT22;8051;50.820;4.884;2022-10-31T16:11:34;16.50;99.90
15906;DHT22;8051;50.820;4.884;2022-10-31T16:14:05;16.40;99.90
15906;DHT22;8051;50.820;4.884;2022-10-31T16:16:41;16.30;99.90
15906;DHT22;8051;50.820;4.884;2022-10-31T16:19:16;16.20;99.90
15906;DHT22;8051;50.820;4.884;2022-10-31T16:21:46;16.20;99.90